sensor_id;sensor_type;location;lat;lon;timestamp;temperature;humidity
12015;DHT22;6066;48.138;16.402;2023-04-03T00:00:35;5.50;99.90
12015;DHT22;6066;48.138;16.402;2023-04-03T00:03:02;5.60;99.90
12015;DHT22;6066;48.138;16.402;2023-04-03T00:05:28;5.50;99.90
12015;DHT22;6066;48.138;16.402;2023-04-03T00:07:55;5.60;99.90
12015;DHT22;6066;48.138;16.402;2023-04-03T00:10:22;5.60;99.90
12015;DHT22;6066;48.138;16.402;2023-04-03T00:12:50;5.50;99.90
12015;DHT22;6066;48.138;16.402;2023-04-03T00:15:16;5.50;99.90
12015;DHT22;6066;48.138;16.402;2023-04-03T00:17:43;5.50;99.90
12015;DHT22;6066;48.138;16.402;2023-04-03T00:20:11;5.60;99.90
12015;DHT22;6066;48.138;16.402;2023-04-03T00:22:37;5.60;99.90
12015;DHT22;6066;48.138;16.402;2023-04-03T00:25:04;5.60;99.90
12015;DHT22;6066;48.138;16.402;2023-04-03T00:27:31;5.60;99.90
12015;DHT22;6066;48.138;16.402;2023-04-03T00:29:59;5.60;99.90
12015;DHT22;6066;48.138;16.402;2023-04-03T00:32:26;5.60;99.90
12015;DHT22;6066;48.138;16.402;2023-04-03T00:34:53;5.60;99.90
12015;DHT22;6066;48.138;16.402;2023-04-03T00:37:19;5.60;99.90
12015;DHT22;6066;48.138;16.402;2023-04-03T00:39:46;5.60;99.90
12015;DHT22;6066;48.138;16.402;2023-04-03T00:42:13;5.60;99.90
12015;DHT22;6066;48.138;16.402;2023-04-03T00:47:32;5.60;99.90
12015;DHT22;6066;48.138;16.402;2023-04-03T00:49:58;5.60;99.90
12015;DHT22;6066;48.138;16.402;2023-04-03T00:52:27;5.60;99.90
12015;DHT22;6066;48.138;16.402;2023-04-03T00:54:56;5.60;99.90
12015;DHT22;6066;48.138;16.402;2023-04-03T00:57:25;5.60;99.90
12015;DHT22;6066;48.138;16.402;2023-04-03T00:59:52;5.60;99.90
12015;DHT22;6066;48.138;16.402;2023-04-03T01:02:21;5.50;99.90
12015;DHT22;6066;48.138;16.402;2023-04-03T01:04:49;5.50;99.90
12015;DHT22;6066;48.138;16.402;2023-04-03T01:07:16;5.60;99.90
12015;DHT22;6066;48.138;16.402;2023-04-03T01:09:44;5.60;99.90
12015;DHT22;6066;48.138;16.402;2023-04-03T01:12:15;5.60;99.90
12015;DHT22;6066;48.138;16.402;2023-04-03T01:14:42;5.60;99.90
12015;DHT22;6066;48.138;16.402;2023-04-03T01:17:23;5.60;99.90
12015;DHT22;6066;48.138;16.402;2023-04-03T01:19:54;5.60;99.90
12015;DHT22;6066;48.138;16.402;2023-04-03T01:22:24;5.50;99.90
12015;DHT22;6066;48.138;16.402;2023-04-03T01:24:54;5.50;99.90
12015;DHT22;6066;48.138;16.402;2023-04-03T01:27:21;5.50;99.90
12015;DHT22;6066;48.138;16.402;2023-04-03T01:29:47;5.50;99.90
12015;DHT22;6066;48.138;16.402;2023-04-03T01:32:15;5.60;99.90
12015;DHT22;6066;48.138;16.402;2023-04-03T01:34:42;5.50;99.90
12015;DHT22;6066;48.138;16.402;2023-04-03T01:37:09;5.60;99.90
12015;DHT22;6066;48.138;16.402;2023-04-03T01:39:35;5.60;99.90
12015;DHT22;6066;48.138;16.402;2023-04-03T01:42:02;5.50;99.90
12015;DHT22;6066;48.138;16.402;2023-04-03T01:44:29;5.50;99.90
12015;DHT22;6066;48.138;16.402;2023-04-03T01:46:56;5.50;99.90
12015;DHT22;6066;48.138;16.402;2023-04-03T01:49:24;5.50;99.90
12015;DHT22;6066;48.138;16.402;2023-04-03T01:51:51;5.50;99.90
12015;DHT22;6066;48.138;16.402;2023-04-03T01:54:17;5.50;99.90
12015;DHT22;6066;48.138;16.402;2023-04-03T01:56:44;5.50;99.90
12015;DHT22;6066;48.138;16.402;2023-04-03T01:59:11;5.50;99.90
12015;DHT22;6066;48.138;16.402;2023-04-03T02:01:39;5.40;99.90
12015;DHT22;6066;48.138;16.402;2023-04-03T02:04:06;5.40;99.90
12015;DHT22;6066;48.138;16.402;2023-04-03T02:06:34;5.40;99.90
12015;DHT22;6066;48.138;16.402;2023-04-03T02:09:01;5.40;99.90
12015;DHT22;6066;48.138;16.402;2023-04-03T02:11:28;5.40;99.90
12015;DHT22;6066;48.138;16.402;2023-04-03T02:13:54;5.40;99.90
12015;DHT22;6066;48.138;16.402;2023-04-03T02:16:22;5.40;99.90
12015;DHT22;6066;48.138;16.402;2023-04-03T02:18:49;5.40;99.90
12015;DHT22;6066;48.138;16.402;2023-04-03T02:21:16;5.40;99.90
12015;DHT22;6066;48.138;16.402;2023-04-03T02:23:44;5.40;99.90
12015;DHT22;6066;48.138;16.402;2023-04-03T02:26:11;5.40;99.90
12015;DHT22;6066;48.138;16.402;2023-04-03T02:28:39;5.40;99.90
12015;DHT22;6066;48.138;16.402;2023-04-03T02:31:06;5.40;99.90
12015;DHT22;6066;48.138;16.402;2023-04-03T02:33:33;5.40;99.90
12015;DHT22;6066;48.138;16.402;2023-04-03T02:36:02;5.40;99.90
12015;DHT22;6066;48.138;16.402;2023-04-03T02:38:29;5.40;99.90
12015;DHT22;6066;48.138;16.402;2023-04-03T02:41:00;5.40;99.90
12015;DHT22;6066;48.138;16.402;2023-04-03T02:43:27;5.40;99.90
12015;DHT22;6066;48.138;16.402;2023-04-03T02:45:54;5.40;99.90
12015;DHT22;6066;48.138;16.402;2023-04-03T02:48:20;5.40;99.90
12015;DHT22;6066;48.138;16.402;2023-04-03T02:50:47;5.40;99.90
12015;DHT22;6066;48.138;16.402;2023-04-03T02:53:14;5.30;99.90
12015;DHT22;6066;48.138;16.402;2023-04-03T02:55:41;5.30;99.90
12015;DHT22;6066;48.138;16.402;2023-04-03T02:58:09;5.30;99.90
12015;DHT22;6066;48.138;16.402;2023-04-03T03:00:36;5.30;99.90
12015;DHT22;6066;48.138;16.402;2023-04-03T03:03:03;5.30;99.90
12015;DHT22;6066;48.138;16.402;2023-04-03T03:05:30;5.30;99.90
12015;DHT22;6066;48.138;16.402;2023-04-03T03:07:57;5.30;99.90
12015;DHT22;6066;48.138;16.402;2023-04-03T03:10:24;5.30;99.90
12015;DHT22;6066;48.138;16.402;2023-04-03T03:12:50;5.30;99.90
12015;DHT22;6066;48.138;16.402;2023-04-03T03:15:19;5.30;99.90
12015;DHT22;6066;48.138;16.402;2023-04-03T03:17:45;5.30;99.90
12015;DHT22;6066;48.138;16.402;2023-04-03T03:20:12;5.30;99.90
12015;DHT22;6066;48.138;16.402;2023-04-03T03:22:39;5.30;99.90
12015;DHT22;6066;48.138;16.402;2023-04-03T03:25:06;5.30;99.90
12015;DHT22;6066;48.138;16.402;2023-04-03T03:27:33;5.30;99.90
12015;DHT22;6066;48.138;16.402;2023-04-03T03:30:00;5.30;99.90
12015;DHT22;6066;48.138;16.402;2023-04-03T03:32:28;5.20;99.90
12015;DHT22;6066;48.138;16.402;2023-04-03T03:34:54;5.20;99.90
12015;DHT22;6066;48.138;16.402;2023-04-03T03:37:21;5.20;99.90
12015;DHT22;6066;48.138;16.402;2023-04-03T03:39:48;5.20;99.90
12015;DHT22;6066;48.138;16.402;2023-04-03T03:42:14;5.20;99.90
12015;DHT22;6066;48.138;16.402;2023-04-03T03:44:41;5.20;99.90
12015;DHT22;6066;48.138;16.402;2023-04-03T03:47:08;5.20;99.90
12015;DHT22;6066;48.138;16.402;2023-04-03T03:49:37;5.10;99.90
12015;DHT22;6066;48.138;16.402;2023-04-03T03:52:04;5.10;99.90
12015;DHT22;6066;48.138;16.402;2023-04-03T03:54:31;5.10;99.90
12015;DHT22;6066;48.138;16.402;2023-04-03T03:56:57;5.10;99.90
12015;DHT22;6066;48.138;16.402;2023-04-03T03:59:24;5.10;99.90
12015;DHT22;6066;48.138;16.402;2023-04-03T04:01:51;5.10;99.90
12015;DHT22;6066;48.138;16.402;2023-04-03T04:04:18;5.10;99.90
12015;DHT22;6066;48.138;16.402;2023-04-03T04:06:46;5.10;99.90
12015;DHT22;6066;48.138;16.402;2023-04-03T04:09:13;5.10;99.90
12015;DHT22;6066;48.138;16.402;2023-04-03T04:11:39;5.10;99.90
12015;DHT22;6066;48.138;16.402;2023-04-03T04:14:06;5.10;99.90
12015;DHT22;6066;48.138;16.402;2023-04-03T04:16:35;5.10;99.90
12015;DHT22;6066;48.138;16.402;2023-04-03T04:19:02;5.10;99.90
12015;DHT22;6066;48.138;16.402;2023-04-03T04:21:29;5.10;99.90
12015;DHT22;6066;48.138;16.402;2023-04-03T04:23:57;5.10;99.90
12015;DHT22;6066;48.138;16.402;2023-04-03T04:26:23;5.10;99.90
12015;DHT22;6066;48.138;16.402;2023-04-03T04:28:50;5.10;99.90
12015;DHT22;6066;48.138;16.402;2023-04-03T04:31:17;5.00;99.90
12015;DHT22;6066;48.138;16.402;2023-04-03T04:33:43;5.00;99.90
12015;DHT22;6066;48.138;16.402;2023-04-03T04:36:10;5.10;99.90
12015;DHT22;6066;48.138;16.402;2023-04-03T04:38:37;5.10;99.90
12015;DHT22;6066;48.138;16.402;2023-04-03T04:41:05;5.10;99.90
12015;DHT22;6066;48.138;16.402;2023-04-03T04:43:32;5.10;99.90
12015;DHT22;6066;48.138;16.402;2023-04-03T04:46:02;5.10;99.90
12015;DHT22;6066;48.138;16.402;2023-04-03T04:48:29;5.00;99.90
12015;DHT22;6066;48.138;16.402;2023-04-03T04:50:55;5.00;99.90
12015;DHT22;6066;48.138;16.402;2023-04-03T04:53:22;5.00;99.90
12015;DHT22;6066;48.138;16.402;2023-04-03T04:55:49;5.00;99.90
12015;DHT22;6066;48.138;16.402;2023-04-03T04:58:17;5.00;99.90
12015;DHT22;6066;48.138;16.402;2023-04-03T05:00:44;5.00;99.90
12015;DHT22;6066;48.138;16.402;2023-04-03T05:03:10;5.00;99.90
12015;DHT22;6066;48.138;16.402;2023-04-03T05:05:37;5.00;99.90
12015;DHT22;6066;48.138;16.402;2023-04-03T05:08:04;5.00;99.90
12015;DHT22;6066;48.138;16.402;2023-04-03T05:10:31;5.00;99.90
12015;DHT22;6066;48.138;16.402;2023-04-03T05:12:58;5.00;99.90
12015;DHT22;6066;48.138;16.402;2023-04-03T05:15:26;5.00;99.90
12015;DHT22;6066;48.138;16.402;2023-04-03T05:17:53;5.10;99.90
12015;DHT22;6066;48.138;16.402;2023-04-03T05:20:19;5.00;99.90
12015;DHT22;6066;48.138;16.402;2023-04-03T05:22:46;5.00;99.90
12015;DHT22;6066;48.138;16.402;2023-04-03T05:25:13;5.00;99.90
12015;DHT22;6066;48.138;16.402;2023-04-03T05:27:40;5.00;99.90
12015;DHT22;6066;48.138;16.402;2023-04-03T05:30:07;5.10;99.90
12015;DHT22;6066;48.138;16.402;2023-04-03T05:32:35;5.10;99.90
12015;DHT22;6066;48.138;16.402;2023-04-03T05:35:02;5.10;99.90
12015;DHT22;6066;48.138;16.402;2023-04-03T05:37:29;5.10;99.90
12015;DHT22;6066;48.138;16.402;2023-04-03T05:39:56;5.10;99.90
12015;DHT22;6066;48.138;16.402;2023-04-03T05:42:22;5.10;99.90
12015;DHT22;6066;48.138;16.402;2023-04-03T05:44:49;5.20;99.90
12015;DHT22;6066;48.138;16.402;2023-04-03T05:47:16;5.10;99.90
12015;DHT22;6066;48.138;16.402;2023-04-03T05:49:44;5.10;99.90
12015;DHT22;6066;48.138;16.402;2023-04-03T05:52:12;5.10;99.90
12015;DHT22;6066;48.138;16.402;2023-04-03T05:54:44;5.10;99.90
12015;DHT22;6066;48.138;16.402;2023-04-03T05:57:13;5.10;99.90
12015;DHT22;6066;48.138;16.402;2023-04-03T05:59:40;5.20;99.90
12015;DHT22;6066;48.138;16.402;2023-04-03T06:02:06;5.20;99.90
12015;DHT22;6066;48.138;16.402;2023-04-03T06:04:33;5.30;99.90
12015;DHT22;6066;48.138;16.402;2023-04-03T06:07:03;5.30;99.90
12015;DHT22;6066;48.138;16.402;2023-04-03T06:09:30;5.40;99.90
12015;DHT22;6066;48.138;16.402;2023-04-03T06:11:57;5.40;99.90
12015;DHT22;6066;48.138;16.402;2023-04-03T06:14:24;5.40;99.90
12015;DHT22;6066;48.138;16.402;2023-04-03T06:16:51;5.40;99.90
12015;DHT22;6066;48.138;16.402;2023-04-03T06:19:17;5.40;99.90
12015;DHT22;6066;48.138;16.402;2023-04-03T06:21:44;5.40;99.90
12015;DHT22;6066;48.138;16.402;2023-04-03T06:24:13;5.40;99.90
12015;DHT22;6066;48.138;16.402;2023-04-03T06:26:40;5.50;99.90
12015;DHT22;6066;48.138;16.402;2023-04-03T06:29:07;5.50;99.90
12015;DHT22;6066;48.138;16.402;2023-04-03T06:31:34;5.50;99.90
12015;DHT22;6066;48.138;16.402;2023-04-03T06:34:01;5.60;99.90
12015;DHT22;6066;48.138;16.402;2023-04-03T06:36:28;5.60;99.90
12015;DHT22;6066;48.138;16.402;2023-04-03T06:38:55;5.50;99.90
12015;DHT22;6066;48.138;16.402;2023-04-03T06:41:23;5.50;99.90
12015;DHT22;6066;48.138;16.402;2023-04-03T06:43:51;5.40;99.90
12015;DHT22;6066;48.138;16.402;2023-04-03T06:46:19;5.40;99.90
12015;DHT22;6066;48.138;16.402;2023-04-03T06:48:46;5.40;99.90
12015;DHT22;6066;48.138;16.402;2023-04-03T06:51:17;5.40;99.90
12015;DHT22;6066;48.138;16.402;2023-04-03T06:53:45;5.40;99.90
12015;DHT22;6066;48.138;16.402;2023-04-03T06:56:12;5.40;99.90
12015;DHT22;6066;48.138;16.402;2023-04-03T06:58:41;5.40;99.90
12015;DHT22;6066;48.138;16.402;2023-04-03T07:01:09;5.40;99.90
12015;DHT22;6066;48.138;16.402;2023-04-03T07:03:36;5.40;99.90
12015;DHT22;6066;48.138;16.402;2023-04-03T07:06:03;5.30;99.90
12015;DHT22;6066;48.138;16.402;2023-04-03T07:08:31;5.40;99.90
12015;DHT22;6066;48.138;16.402;2023-04-03T07:10:57;5.40;99.90
12015;DHT22;6066;48.138;16.402;2023-04-03T07:13:24;5.40;99.90
12015;DHT22;6066;48.138;16.402;2023-04-03T07:15:53;5.50;99.90
12015;DHT22;6066;48.138;16.402;2023-04-03T07:18:19;5.50;99.90
12015;DHT22;6066;48.138;16.402;2023-04-03T07:20:46;5.50;99.90
12015;DHT22;6066;48.138;16.402;2023-04-03T07:23:13;5.60;99.90
12015;DHT22;6066;48.138;16.402;2023-04-03T07:25:41;5.60;99.90
12015;DHT22;6066;48.138;16.402;2023-04-03T07:28:08;5.70;99.90
12015;DHT22;6066;48.138;16.402;2023-04-03T07:30:37;5.80;99.90
12015;DHT22;6066;48.138;16.402;2023-04-03T07:33:09;5.80;99.90
12015;DHT22;6066;48.138;16.402;2023-04-03T07:35:36;5.80;99.90
12015;DHT22;6066;48.138;16.402;2023-04-03T07:38:02;5.90;99.90
12015;DHT22;6066;48.138;16.402;2023-04-03T07:40:30;6.00;99.90
12015;DHT22;6066;48.138;16.402;2023-04-03T07:42:57;6.00;99.90
12015;DHT22;6066;48.138;16.402;2023-04-03T07:45:25;6.10;99.90
12015;DHT22;6066;48.138;16.402;2023-04-03T07:47:52;6.10;99.90
12015;DHT22;6066;48.138;16.402;2023-04-03T07:50:20;6.20;99.90
12015;DHT22;6066;48.138;16.402;2023-04-03T07:52:47;6.30;99.90
12015;DHT22;6066;48.138;16.402;2023-04-03T07:55:16;6.30;99.90
12015;DHT22;6066;48.138;16.402;2023-04-03T07:57:42;6.30;99.90
12015;DHT22;6066;48.138;16.402;2023-04-03T08:00:10;6.30;99.90
12015;DHT22;6066;48.138;16.402;2023-04-03T08:02:37;6.20;99.90
12015;DHT22;6066;48.138;16.402;2023-04-03T08:05:04;6.30;99.90
12015;DHT22;6066;48.138;16.402;2023-04-03T08:07:32;6.30;99.90
12015;DHT22;6066;48.138;16.402;2023-04-03T08:09:59;6.40;99.90
12015;DHT22;6066;48.138;16.402;2023-04-03T08:12:25;6.40;99.90
12015;DHT22;6066;48.138;16.402;2023-04-03T08:14:53;6.30;99.90
12015;DHT22;6066;48.138;16.402;2023-04-03T08:17:20;6.20;99.90
12015;DHT22;6066;48.138;16.402;2023-04-03T08:19:47;6.20;99.90
12015;DHT22;6066;48.138;16.402;2023-04-03T08:22:13;6.20;99.90
12015;DHT22;6066;48.138;16.402;2023-04-03T08:24:42;6.20;99.90
12015;DHT22;6066;48.138;16.402;2023-04-03T08:27:09;6.20;99.90
12015;DHT22;6066;48.138;16.402;2023-04-03T08:29:35;6.30;99.90
12015;DHT22;6066;48.138;16.402;2023-04-03T08:32:03;6.40;99.90
12015;DHT22;6066;48.138;16.402;2023-04-03T08:34:30;6.40;99.90
12015;DHT22;6066;48.138;16.402;2023-04-03T08:37:00;6.60;99.90
12015;DHT22;6066;48.138;16.402;2023-04-03T08:39:26;6.80;99.90
12015;DHT22;6066;48.138;16.402;2023-04-03T08:41:55;6.70;99.90
12015;DHT22;6066;48.138;16.402;2023-04-03T08:44:24;6.50;99.90
12015;DHT22;6066;48.138;16.402;2023-04-03T08:47:07;6.40;99.90
12015;DHT22;6066;48.138;16.402;2023-04-03T08:49:37;6.20;99.90
12015;DHT22;6066;48.138;16.402;2023-04-03T08:52:09;6.20;99.90
12015;DHT22;6066;48.138;16.402;2023-04-03T08:54:40;6.30;99.90
12015;DHT22;6066;48.138;16.402;2023-04-03T08:57:15;6.50;99.90
12015;DHT22;6066;48.138;16.402;2023-04-03T08:59:42;6.90;99.90
12015;DHT22;6066;48.138;16.402;2023-04-03T09:02:16;7.10;99.90
12015;DHT22;6066;48.138;16.402;2023-04-03T09:04:45;7.10;99.90
12015;DHT22;6066;48.138;16.402;2023-04-03T09:07:13;7.20;99.90
12015;DHT22;6066;48.138;16.402;2023-04-03T09:09:42;7.30;99.90
12015;DHT22;6066;48.138;16.402;2023-04-03T09:12:12;7.40;99.90
12015;DHT22;6066;48.138;16.402;2023-04-03T09:14:44;7.60;99.90
12015;DHT22;6066;48.138;16.402;2023-04-03T09:17:14;7.70;99.90
12015;DHT22;6066;48.138;16.402;2023-04-03T09:19:45;7.60;99.90
12015;DHT22;6066;48.138;16.402;2023-04-03T09:22:16;7.50;99.90
12015;DHT22;6066;48.138;16.402;2023-04-03T09:24:43;7.50;99.90
12015;DHT22;6066;48.138;16.402;2023-04-03T09:27:11;7.50;99.90
12015;DHT22;6066;48.138;16.402;2023-04-03T09:29:39;7.40;99.90
12015;DHT22;6066;48.138;16.402;2023-04-03T09:32:18;7.20;99.90
12015;DHT22;6066;48.138;16.402;2023-04-03T09:34:46;7.30;99.90
12015;DHT22;6066;48.138;16.402;2023-04-03T09:37:21;7.60;99.90
12015;DHT22;6066;48.138;16.402;2023-04-03T09:40:00;7.90;99.90
12015;DHT22;6066;48.138;16.402;2023-04-03T09:42:27;7.90;99.90
12015;DHT22;6066;48.138;16.402;2023-04-03T09:44:57;7.80;99.90
12015;DHT22;6066;48.138;16.402;2023-04-03T09:47:25;7.70;99.90
12015;DHT22;6066;48.138;16.402;2023-04-03T09:50:08;7.90;99.90
12015;DHT22;6066;48.138;16.402;2023-04-03T09:52:35;7.90;99.90
12015;DHT22;6066;48.138;16.402;2023-04-03T09:55:06;8.10;99.90
12015;DHT22;6066;48.138;16.402;2023-04-03T09:57:33;7.90;99.90
12015;DHT22;6066;48.138;16.402;2023-04-03T10:00:01;7.70;99.90
12015;DHT22;6066;48.138;16.402;2023-04-03T10:02:37;7.60;99.90
12015;DHT22;6066;48.138;16.402;2023-04-03T10:05:24;7.40;99.90
12015;DHT22;6066;48.138;16.402;2023-04-03T10:07:51;7.30;99.90
12015;DHT22;6066;48.138;16.402;2023-04-03T10:10:18;7.10;99.90
12015;DHT22;6066;48.138;16.402;2023-04-03T10:12:48;6.90;99.90
12015;DHT22;6066;48.138;16.402;2023-04-03T10:15:15;6.60;99.90
12015;DHT22;6066;48.138;16.402;2023-04-03T10:17:51;6.60;99.90
12015;DHT22;6066;48.138;16.402;2023-04-03T10:20:26;6.60;99.90
12015;DHT22;6066;48.138;16.402;2023-04-03T10:22:56;6.70;99.90
12015;DHT22;6066;48.138;16.402;2023-04-03T10:25:26;7.00;99.90
12015;DHT22;6066;48.138;16.402;2023-04-03T10:27:55;7.10;99.90
12015;DHT22;6066;48.138;16.402;2023-04-03T10:30:30;7.20;99.90
12015;DHT22;6066;48.138;16.402;2023-04-03T10:33:04;7.40;99.90
12015;DHT22;6066;48.138;16.402;2023-04-03T10:35:38;7.50;99.90
12015;DHT22;6066;48.138;16.402;2023-04-03T10:38:09;7.60;99.90
12015;DHT22;6066;48.138;16.402;2023-04-03T10:40:39;7.80;99.90
12015;DHT22;6066;48.138;16.402;2023-04-03T10:43:14;7.80;99.90
12015;DHT22;6066;48.138;16.402;2023-04-03T10:45:53;7.90;99.90
12015;DHT22;6066;48.138;16.402;2023-04-03T10:48:25;8.00;99.90
12015;DHT22;6066;48.138;16.402;2023-04-03T10:50:56;7.90;99.90
12015;DHT22;6066;48.138;16.402;2023-04-03T10:53:26;7.90;99.90
12015;DHT22;6066;48.138;16.402;2023-04-03T10:55:58;7.70;99.90
12015;DHT22;6066;48.138;16.402;2023-04-03T10:58:29;7.60;99.90
12015;DHT22;6066;48.138;16.402;2023-04-03T11:00:57;7.50;99.90
12015;DHT22;6066;48.138;16.402;2023-04-03T11:03:30;7.70;99.90
12015;DHT22;6066;48.138;16.402;2023-04-03T11:05:59;8.00;99.90
12015;DHT22;6066;48.138;16.402;2023-04-03T11:08:27;8.10;99.90
12015;DHT22;6066;48.138;16.402;2023-04-03T11:10:56;8.10;99.90
12015;DHT22;6066;48.138;16.402;2023-04-03T11:13:24;8.10;99.90
12015;DHT22;6066;48.138;16.402;2023-04-03T11:15:53;8.00;99.90
12015;DHT22;6066;48.138;16.402;2023-04-03T11:18:21;7.90;99.90
12015;DHT22;6066;48.138;16.402;2023-04-03T11:20:53;7.90;99.90
12015;DHT22;6066;48.138;16.402;2023-04-03T11:23:25;7.80;99.90
12015;DHT22;6066;48.138;16.402;2023-04-03T11:25:53;7.60;99.90
12015;DHT22;6066;48.138;16.402;2023-04-03T11:28:21;7.50;99.90
12015;DHT22;6066;48.138;16.402;2023-04-03T11:30:49;7.30;99.90
12015;DHT22;6066;48.138;16.402;2023-04-03T11:33:21;7.20;99.90
12015;DHT22;6066;48.138;16.402;2023-04-03T11:35:53;7.10;99.90
12015;DHT22;6066;48.138;16.402;2023-04-03T11:38:23;7.20;99.90
12015;DHT22;6066;48.138;16.402;2023-04-03T11:40:52;7.20;99.90
12015;DHT22;6066;48.138;16.402;2023-04-03T11:43:23;7.10;99.90
12015;DHT22;6066;48.138;16.402;2023-04-03T11:45:53;7.30;99.90
12015;DHT22;6066;48.138;16.402;2023-04-03T11:53:48;7.30;99.90
12015;DHT22;6066;48.138;16.402;2023-04-03T11:56:28;7.10;99.90
12015;DHT22;6066;48.138;16.402;2023-04-03T12:01:54;7.00;99.90
12015;DHT22;6066;48.138;16.402;2023-04-03T12:04:22;7.00;99.90
12015;DHT22;6066;48.138;16.402;2023-04-03T12:09:53;6.90;99.90
12015;DHT22;6066;48.138;16.402;2023-04-03T12:12:23;6.70;99.90
12015;DHT22;6066;48.138;16.402;2023-04-03T12:14:50;6.60;99.90
12015;DHT22;6066;48.138;16.402;2023-04-03T12:17:20;6.50;99.90
12015;DHT22;6066;48.138;16.402;2023-04-03T12:19:47;6.60;99.90
12015;DHT22;6066;48.138;16.402;2023-04-03T12:22:14;6.60;99.90
12015;DHT22;6066;48.138;16.402;2023-04-03T12:24:43;6.60;99.90
12015;DHT22;6066;48.138;16.402;2023-04-03T12:27:22;6.70;99.90
12015;DHT22;6066;48.138;16.402;2023-04-03T12:29:51;6.70;99.90
12015;DHT22;6066;48.138;16.402;2023-04-03T12:32:22;6.60;99.90
12015;DHT22;6066;48.138;16.402;2023-04-03T12:34:56;6.50;99.90
12015;DHT22;6066;48.138;16.402;2023-04-03T12:37:37;6.60;99.90
12015;DHT22;6066;48.138;16.402;2023-04-03T12:40:09;6.70;99.90
12015;DHT22;6066;48.138;16.402;2023-04-03T12:45:22;6.80;99.90
12015;DHT22;6066;48.138;16.402;2023-04-03T12:47:49;6.80;99.90
12015;DHT22;6066;48.138;16.402;2023-04-03T12:50:18;6.80;99.90
12015;DHT22;6066;48.138;16.402;2023-04-03T12:52:50;6.80;99.90
12015;DHT22;6066;48.138;16.402;2023-04-03T12:55:19;6.80;99.90
12015;DHT22;6066;48.138;16.402;2023-04-03T12:57:47;6.90;99.90
12015;DHT22;6066;48.138;16.402;2023-04-03T13:00:28;7.00;99.90
12015;DHT22;6066;48.138;16.402;2023-04-03T13:02:55;7.00;99.90
12015;DHT22;6066;48.138;16.402;2023-04-03T13:05:22;7.00;99.90
12015;DHT22;6066;48.138;16.402;2023-04-03T13:07:49;7.00;99.90
12015;DHT22;6066;48.138;16.402;2023-04-03T13:10:20;6.90;99.90
12015;DHT22;6066;48.138;16.402;2023-04-03T13:12:48;7.00;99.90
12015;DHT22;6066;48.138;16.402;2023-04-03T13:15:15;7.00;99.90
12015;DHT22;6066;48.138;16.402;2023-04-03T13:17:43;7.10;99.90
12015;DHT22;6066;48.138;16.402;2023-04-03T13:20:13;7.20;99.90
12015;DHT22;6066;48.138;16.402;2023-04-03T13:22:42;7.10;99.90
12015;DHT22;6066;48.138;16.402;2023-04-03T13:25:11;7.10;99.90
12015;DHT22;6066;48.138;16.402;2023-04-03T13:27:40;7.10;99.90
12015;DHT22;6066;48.138;16.402;2023-04-03T13:30:17;7.10;99.90
12015;DHT22;6066;48.138;16.402;2023-04-03T13:32:45;7.10;99.90
12015;DHT22;6066;48.138;16.402;2023-04-03T13:35:28;7.30;99.90
12015;DHT22;6066;48.138;16.402;2023-04-03T13:37:56;7.40;99.90
12015;DHT22;6066;48.138;16.402;2023-04-03T13:40:23;7.50;99.90
12015;DHT22;6066;48.138;16.402;2023-04-03T13:43:03;7.70;99.90
12015;DHT22;6066;48.138;16.402;2023-04-03T13:45:30;7.70;99.90
12015;DHT22;6066;48.138;16.402;2023-04-03T13:48:08;7.70;99.90
12015;DHT22;6066;48.138;16.402;2023-04-03T13:50:49;7.60;99.90
12015;DHT22;6066;48.138;16.402;2023-04-03T13:53:17;7.70;99.90
12015;DHT22;6066;48.138;16.402;2023-04-03T13:55:53;7.70;99.90
12015;DHT22;6066;48.138;16.402;2023-04-03T13:58:22;7.60;99.90
12015;DHT22;6066;48.138;16.402;2023-04-03T14:00:50;7.50;99.90
12015;DHT22;6066;48.138;16.402;2023-04-03T14:03:19;7.50;99.90
12015;DHT22;6066;48.138;16.402;2023-04-03T14:05:46;7.40;99.90
12015;DHT22;6066;48.138;16.402;2023-04-03T14:08:13;7.40;99.90
12015;DHT22;6066;48.138;16.402;2023-04-03T14:10:41;7.40;99.90
12015;DHT22;6066;48.138;16.402;2023-04-03T14:13:09;7.50;99.90
12015;DHT22;6066;48.138;16.402;2023-04-03T14:15:40;7.60;99.90
12015;DHT22;6066;48.138;16.402;2023-04-03T14:18:09;8.00;99.90
12015;DHT22;6066;48.138;16.402;2023-04-03T14:20:36;8.10;99.90
12015;DHT22;6066;48.138;16.402;2023-04-03T14:23:03;8.10;99.80
12015;DHT22;6066;48.138;16.402;2023-04-03T14:25:29;8.00;99.90
12015;DHT22;6066;48.138;16.402;2023-04-03T14:27:56;8.20;99.90
12015;DHT22;6066;48.138;16.402;2023-04-03T14:30:24;8.40;99.90
12015;DHT22;6066;48.138;16.402;2023-04-03T14:32:52;8.60;99.90
12015;DHT22;6066;48.138;16.402;2023-04-03T14:35:19;8.80;99.90
12015;DHT22;6066;48.138;16.402;2023-04-03T14:37:46;8.80;99.90
12015;DHT22;6066;48.138;16.402;2023-04-03T14:40:14;8.70;99.90
12015;DHT22;6066;48.138;16.402;2023-04-03T14:42:42;8.60;99.90
12015;DHT22;6066;48.138;16.402;2023-04-03T14:45:11;8.40;99.90
12015;DHT22;6066;48.138;16.402;2023-04-03T14:47:39;8.10;99.90
12015;DHT22;6066;48.138;16.402;2023-04-03T14:50:11;7.90;99.90
12015;DHT22;6066;48.138;16.402;2023-04-03T14:52:39;7.70;99.90
12015;DHT22;6066;48.138;16.402;2023-04-03T14:55:06;7.50;99.90
12015;DHT22;6066;48.138;16.402;2023-04-03T14:57:33;7.30;99.90
12015;DHT22;6066;48.138;16.402;2023-04-03T15:00:00;7.00;99.90
12015;DHT22;6066;48.138;16.402;2023-04-03T15:02:30;7.00;99.90
12015;DHT22;6066;48.138;16.402;2023-04-03T15:04:58;7.30;99.90
12015;DHT22;6066;48.138;16.402;2023-04-03T15:07:27;7.40;99.90
12015;DHT22;6066;48.138;16.402;2023-04-03T15:09:54;7.20;99.90
12015;DHT22;6066;48.138;16.402;2023-04-03T15:12:22;7.10;99.90
12015;DHT22;6066;48.138;16.402;2023-04-03T15:14:48;7.00;99.90
12015;DHT22;6066;48.138;16.402;2023-04-03T15:17:16;6.90;99.90
12015;DHT22;6066;48.138;16.402;2023-04-03T15:19:43;6.70;99.90
12015;DHT22;6066;48.138;16.402;2023-04-03T15:22:12;6.70;99.90
12015;DHT22;6066;48.138;16.402;2023-04-03T15:24:41;7.00;99.90
12015;DHT22;6066;48.138;16.402;2023-04-03T15:27:08;7.20;99.90
12015;DHT22;6066;48.138;16.402;2023-04-03T15:29:35;7.20;99.50
12015;DHT22;6066;48.138;16.402;2023-04-03T15:32:02;7.00;99.40
12015;DHT22;6066;48.138;16.402;2023-04-03T15:34:29;6.90;99.60
12015;DHT22;6066;48.138;16.402;2023-04-03T15:36:56;6.60;99.90
12015;DHT22;6066;48.138;16.402;2023-04-03T15:39:24;6.40;99.90
12015;DHT22;6066;48.138;16.402;2023-04-03T15:41:52;6.30;99.90
12015;DHT22;6066;48.138;16.402;2023-04-03T15:44:19;6.40;99.90
12015;DHT22;6066;48.138;16.402;2023-04-03T15:46:45;6.30;99.90
12015;DHT22;6066;48.138;16.402;2023-04-03T15:49:14;6.20;99.90
12015;DHT22;6066;48.138;16.402;2023-04-03T15:51:40;6.00;99.90
12015;DHT22;6066;48.138;16.402;2023-04-03T15:54:07;5.90;99.90
12015;DHT22;6066;48.138;16.402;2023-04-03T15:56:34;5.80;99.90
12015;DHT22;6066;48.138;16.402;2023-04-03T15:59:02;5.80;99.90
12015;DHT22;6066;48.138;16.402;2023-04-03T16:01:29;5.90;99.90
12015;DHT22;6066;48.138;16.402;2023-04-03T16:03:57;6.00;99.90
12015;DHT22;6066;48.138;16.402;2023-04-03T16:06:24;6.20;99.90
12015;DHT22;6066;48.138;16.402;2023-04-03T16:08:51;6.30;99.90